Big Bend, CA (96011)

11:29 PM PST on December 25, 2014 (GMT -0800)
Black Ranch at Vedder | Change Station
CLOSE
Current Station
Personal Weather Station
Location: Burney, CA
Elevation: 3137 ft
Nearby Weather Stations

Elev 3137 ft 40.93 °N, 121.66 °W | Updated 3 seconds ago

Partly Cloudy
Partly Cloudy
25.3 °F
Feels Like 25 °F
N
1.0
Wind Variable Wind from NW
Gusts 2.0 mph

Today
High -- | Low -- °F
--% Chance of Precip.
Yesterday
High -- | Low -- °F
Precip. -- in
7:31 AM 4:45 PM
Waxing Crescent, 23% visible
Pressure 30.26 in
Visibility 10.0 miles
Clouds Few 2200 ft
Windchill 25 °F
Dew Point 24 °F
Humidity 93%
Rainfall 0.00 in
Snow Depth Not available.
UV 0.0 out of 12
Pollen 3.90 out of 12
Air Quality Not available.
Flu Activity Not available.
METAR KMHS 260656Z AUTO 32009G17KT 280V340 10SM FEW022 01/M03 A3016 RMK AO2 SLP247 T00061033

More Conditions Fewer Conditions

Pressure 30.26 in
Visibility 10.0 miles
Clouds Few 2200 ft
Windchill 25 °F
Dew Point 24 °F
Humidity 93%
Rainfall 0.00 in
Snow Depth Not available.
UV 0.0 out of 12
Pollen 3.90 out of 12
Air Quality Not available.
Flu Activity Not available.
METAR KMHS 260656Z AUTO 32009G17KT 280V340 10SM FEW022 01/M03 A3016 RMK AO2 SLP247 T00061033

More Conditions Fewer Conditions

10-Day Weather Forecast

Almanac

Astronomy

Dec. 25, 2014 Rise Set
Actual Time
Civil Twilight
Nautical Twilight
Astronomical Twilight
Moon
Length of Visible Light
Length of Day
Tomorrow will be .
, % of the Moon is Illuminated

Today's Extremes

State Highs State Lows

Community

WunderPhotos

Upload Photos

1,780,571 photos uploaded!

WunderBlogs® & News

Nearby

Air Quality

  Air Quality AQ Index Pollutant
Not available.

Snow Depth

Station Depth Elevation

Earthquake Activity

City Distance Mag. Time & Date
Minimum magnitude displayed is 2.5.

Coastal Water Temperatures

Place Temperature

Nearby Weather Stations